Nye, Montana
Current Conditions -  °F | °C
As of 8:53 AM on Wednesday 28 Jan 2015 (Local Time) from KLVM Reporting Station
Scattered Clouds Scattered Clouds  
Wind Chill: 41°   Ceiling: Unl
Heat Index: 46°   Visibility: 10mi
Dew Point: 32°   Wind: 9mph
Humidity: 58%   Direction: 290°WNW
Pressure: 30.14"   Gusts: NA
Location:  45.45°N, 109.81°W
Report Text: KLVM 281553Z AUTO 29008KT 10SM FEW060 SCT110 08/00 A3014 RMK AO2 SLP199 T00780000
Loading
Personal Weather Stations






























Interactive Weather Map New forecast layout! Learn more

10-Day Weather Forecast

Advertisements
Track Severe Weather on mobile